Pula, Chorvatsko

00:17 CEST 23. Září 2014 (GMT +0200)
Istra | Change Station
CLOSE
Current Station
Osobní povětrnostní stanice
Location: Vodnjan, ISTRIA
Nadmořská výška: 0 ft
Poblíž povětrnostní stanice

Výška 0 ft 44.96 °N, 13.85 °E | Updated 11 minutes ago

Rain
Déšť
51.5 °F
Pocit jako 51.5 °F
S
0.0
Vítr proměnlivý Vítr od severní
Gusts 0.0 mil/h

Dnes
Vysoké -- | Nízké -- °F
--% Možnost srážek
Včera
Vysoké -- | Nízké -- °F
Precip. -- inčů
6:52 AM 7:00 PM
Ubývající srpek, 2% visible
Tlak 29.95 inčů
Viditelnost 4.3 mílí
Zataženo Nemnoho 2100 ft
Nemnoho 2800 ft
Polojasno 3200 ft
Skoro zataženo 4700 ft
Rosný bod 49 °F
Vlhkost 91%
Dešťové srážky -9999.00 inčů
Sněhová pokrývka Není k dispozici
UV záření 0 ze 12
Pyl Není k dispozici
Kvalita ovzduší Není k dispozici
Flu Activity Není k dispozici
METAR LDPL 222200Z 01015G27KT 320V050 7000 RA VCTS FEW021 FEW028CB SCT032 BKN047 11/09 Q1014 NOSIG

More Conditions Fewer Conditions

Tlak 29.95 inčů
Viditelnost 4.3 mílí
Zataženo Nemnoho 2100 ft
Nemnoho 2800 ft
Polojasno 3200 ft
Skoro zataženo 4700 ft
Rosný bod 49 °F
Vlhkost 91%
Dešťové srážky -9999.00 inčů
Sněhová pokrývka Není k dispozici
UV záření 0 ze 12
Pyl Není k dispozici
Kvalita ovzduší Není k dispozici
Flu Activity Není k dispozici
METAR LDPL 222200Z 01015G27KT 320V050 7000 RA VCTS FEW021 FEW028CB SCT032 BKN047 11/09 Q1014 NOSIG

More Conditions Fewer Conditions

10-Day Weather Forecast

Almanac

Astronomie

Sep. 23, 2014 Východ Západ
Skutečný čas 06:52 CEST 19:00 CEST
Občanský soumrak 06:23 CEST 19:29 CEST
Námořní soumrak 05:48 CEST 20:03 CEST
Astronomický soumrak 05:13 CEST 20:38 CEST
Měsíc 05:59 CEST (9/23) 18:30 CEST (9/23)
Délka denního světla 13h 06m
Délka dne
12h 08m
Tomorrow will be 3m 6s shorter.
Ubývající srpek, 2% of the Moon is Illuminated
Zář 22
Ubývající srpek
Zář 24
Nov
Říj 1
První čtvrť
Říj 8
Úplněk
Říj 15
Ubývající

Včerejší extrémy

Nejvyšší hodnoty ve státě Nejnižší hodnoty ve státě

Community

WunderPhotos

Upload Photos

1,755,539 snímků staženo!

Nearby

Výška sněhu

Not available.

Seizmická činnost

Město Distance Mag. Čas & datum
Žádné zemětřesení v okolí nebylo hlášeno
Minimální zobrazený rozsah je 2.5.

Pobřežní teplota vody

Lokalita Teplota
Stanice nic nehlásí

Poblíž povětrnostní stanice